Terminal Aerodrome Forecast
Issued by NWS

Home | Current Version | Previous Version | Text Only | Print | Product List | Glossary On
Versions: 1 2 3 4 5 6 7 8 9 10 11 12 13 14 15 16 17 18 19 20 21 22 23 24 25 26 27
142
FTUS46 KMTR 070258 AAA
TAFSFO
TAF AMD
KSFO 070258Z 0703/0806 28007KT P6SM SCT200
     FM070600 VRB03KT P6SM FEW200
     FM071200 VRB03KT 6SM BR SKC
     FM071800 08005KT P6SM SKC
     FM080200 01007KT P6SM SKC=

USA.gov is the U.S. government's official web portal to all federal, state and local government web resources and services.